Time;durP1;ratioP1;P1;durP2;ratioP2;P2;SDS_P1;SDS_P2;PMS_P1;PMS_P2;Temp;Humidity;BMP_temperature;BMP_pressure;BME280_temperature;BME280_humidity;BME280_pressure;Samples;Min_cycle;Max_cycle;Signal;HPM_P1;HPM_P2
2022/07/23 00:00:33;;;;;;;;;12.67;12.00;;;29.56;97742.29;;;;118784;1191;24922;-66
2022/07/23 00:03:06;;;;;;;;;13.00;11.33;;;29.57;97739.86;;;;119119;1188;24832;-66
2022/07/23 00:05:34;;;;;;;;;10.75;10.75;;;29.51;97738.98;;;;119100;1188;25229;-66
2022/07/23 00:08:05;;;;;;;;;14.00;12.50;;;29.48;97745.52;;;;119031;1189;25817;-66
2022/07/23 00:10:38;;;;;;;;;14.00;13.50;;;29.46;97749.04;;;;119143;1188;24761;-66
2022/07/23 00:13:06;;;;;;;;;14.00;11.50;;;29.46;97751.80;;;;119134;1186;25253;-66
2022/07/23 00:15:34;;;;;;;;;12.75;10.25;;;29.47;97753.20;;;;119119;1189;25291;-66
2022/07/23 00:18:02;;;;;;;;;18.75;16.50;;;29.42;97747.77;;;;119117;1188;25392;-65
2022/07/23 00:20:30;;;;;;;;;9.25;9.25;;;29.38;97749.28;;;;118990;1189;25205;-66
2022/07/23 00:22:57;;;;;;;;;17.00;11.25;;;29.37;97753.00;;;;119132;1188;25516;-65
2022/07/23 00:25:27;;;;;;;;;13.25;11.50;;;29.40;97755.90;;;;119117;1188;26438;-65
2022/07/23 00:27:58;;;;;;;;;13.00;12.50;;;29.33;97755.52;;;;119010;1190;25208;-65
2022/07/23 00:30:29;;;;;;;;;10.25;10.25;;;29.31;97754.95;;;;119136;1188;25920;-65
2022/07/23 00:33:03;;;;;;;;;14.33;12.67;;;29.29;97754.86;;;;119144;1187;25275;-65
2022/07/23 00:35:34;;;;;;;;;14.25;10.25;;;29.31;97753.40;;;;119069;1188;24822;-66
2022/07/23 00:38:03;;;;;;;;;11.25;8.50;;;29.36;97753.15;;;;119035;1188;25161;-66
2022/07/23 00:40:31;;;;;;;;;10.67;8.00;;;29.36;97756.63;;;;119136;1188;25615;-66
2022/07/23 00:42:59;;;;;;;;;14.75;12.00;;;29.32;97760.82;;;;119118;1188;25481;-66
2022/07/23 00:45:27;;;;;;;;;13.00;12.75;;;29.26;97763.14;;;;119007;1190;25431;-66
2022/07/23 00:47:55;;;;;;;;;10.00;10.00;;;29.28;97759.95;;;;119121;1188;25451;-66
2022/07/23 00:50:23;;;;;;;;;13.75;11.50;;;29.30;97757.70;;;;119131;1188;25224;-66
2022/07/23 00:52:52;;;;;;;;;14.75;10.50;;;29.31;97757.70;;;;119106;1188;24964;-66
2022/07/23 00:55:20;;;;;;;;;10.50;9.25;;;29.35;97757.70;;;;119136;1187;25521;-66
2022/07/23 00:57:48;;;;;;;;;16.50;10.50;;;29.37;97757.74;;;;119120;1188;24703;-66
2022/07/23 01:00:16;;;;;;;;;13.00;12.25;;;29.38;97754.44;;;;118996;1189;25246;-66
2022/07/23 01:02:45;;;;;;;;;18.00;12.67;;;29.39;97751.95;;;;119020;1188;25696;-66
2022/07/23 01:05:15;;;;;;;;;12.67;10.00;;;29.42;97751.30;;;;119033;1189;25846;-65
2022/07/23 01:07:43;;;;;;;;;13.50;11.00;;;29.44;97752.90;;;;119014;1190;25142;-65
2022/07/23 01:13:02;;;;;;;;;16.00;10.50;;;29.42;97751.21;;;;118997;1190;25125;-64
2022/07/23 01:15:30;;;;;;;;;13.75;10.50;;;29.39;97749.00;;;;118998;1189;25767;-65
2022/07/23 01:17:58;;;;;;;;;10.25;10.25;;;29.41;97744.98;;;;119094;1189;25258;-65
2022/07/23 01:20:26;;;;;;;;;15.25;11.75;;;29.43;97737.17;;;;119040;1187;26083;-66
2022/07/23 01:22:55;;;;;;;;;14.00;11.00;;;29.43;97737.15;;;;119015;1187;25448;-67
2022/07/23 01:25:23;;;;;;;;;12.50;10.50;;;29.45;97732.38;;;;119000;1189;25672;-67
2022/07/23 01:27:52;;;;;;;;;13.00;9.75;;;29.47;97734.11;;;;119028;1187;25349;-65
2022/07/23 01:30:20;;;;;;;;;14.75;13.25;;;29.48;97737.03;;;;119095;1188;24931;-67
2022/07/23 01:32:48;;;;;;;;;15.00;12.50;;;29.48;97735.30;;;;119070;1188;25870;-67
2022/07/23 01:35:16;;;;;;;;;14.00;12.25;;;29.47;97734.11;;;;119055;1189;25698;-67
2022/07/23 01:37:44;;;;;;;;;17.00;11.75;;;29.48;97731.39;;;;118964;1189;26285;-67
2022/07/23 01:40:12;;;;;;;;;9.75;9.75;;;29.48;97729.02;;;;118989;1189;26031;-66
2022/07/23 01:42:39;;;;;;;;;9.75;9.75;;;29.48;97723.90;;;;119059;1187;25039;-66
2022/07/23 01:45:09;;;;;;;;;13.00;10.50;;;29.48;97726.92;;;;119089;1189;25230;-66
2022/07/23 01:47:37;;;;;;;;;15.00;13.50;;;29.44;97729.45;;;;118986;1189;25512;-65
2022/07/23 01:50:06;;;;;;;;;13.00;9.75;;;29.39;97724.67;;;;118975;1190;25799;-65
2022/07/23 01:52:34;;;;;;;;;15.25;11.50;;;29.42;97722.27;;;;118969;1189;24931;-66
2022/07/23 01:55:02;;;;;;;;;11.75;10.00;;;29.32;97722.40;;;;119039;1187;26330;-66
2022/07/23 01:57:30;;;;;;;;;10.25;9.25;;;29.39;97722.15;;;;119018;1188;24995;-66
2022/07/23 01:59:59;;;;;;;;;11.00;9.00;;;29.28;97728.48;;;;118986;1189;25664;-69
2022/07/23 02:02:26;;;;;;;;;9.33;8.67;;;29.26;97727.46;;;;118914;1189;25151;-68
2022/07/23 02:04:54;;;;;;;;;13.00;11.25;;;29.22;97724.95;;;;118981;1189;25741;-68
2022/07/23 02:07:22;;;;;;;;;10.25;10.00;;;29.23;97724.89;;;;118976;1189;25570;-68
2022/07/23 02:09:52;;;;;;;;;15.00;9.75;;;29.26;97725.29;;;;118991;1190;25427;-68
2022/07/23 02:12:20;;;;;;;;;13.50;11.00;;;29.28;97723.77;;;;118998;1189;25886;-68
2022/07/23 02:14:48;;;;;;;;;10.00;8.75;;;29.29;97726.86;;;;119040;1187;25712;-68
2022/07/23 02:17:16;;;;;;;;;12.00;10.00;;;29.30;97726.33;;;;119080;1187;25022;-68
2022/07/23 02:19:44;;;;;;;;;14.50;10.50;;;29.32;97727.73;;;;119094;1187;25466;-68
2022/07/23 02:22:11;;;;;;;;;12.75;10.25;;;29.33;97731.38;;;;119085;1188;25017;-68
2022/07/23 02:24:39;;;;;;;;;12.00;9.75;;;29.33;97734.58;;;;119089;1189;25014;-68
2022/07/23 02:27:07;;;;;;;;;14.50;10.25;;;29.35;97739.60;;;;119099;1188;25514;-68
2022/07/23 02:29:35;;;;;;;;;12.25;9.25;;;29.35;97744.45;;;;119046;1189;24688;-68
2022/07/23 02:32:03;;;;;;;;;14.50;10.50;;;29.38;97744.08;;;;119006;1190;25593;-68
2022/07/23 02:34:34;;;;;;;;;10.25;8.25;;;29.40;97752.26;;;;119013;1190;25638;-68
2022/07/23 02:37:02;;;;;;;;;12.50;10.50;;;29.40;97758.69;;;;118977;1189;24791;-68
2022/07/23 02:39:30;;;;;;;;;12.00;10.75;;;29.41;97759.47;;;;119037;1189;25474;-68
2022/07/23 02:41:57;;;;;;;;;8.00;8.00;;;29.42;97758.36;;;;118895;1191;25801;-68
2022/07/23 02:44:25;;;;;;;;;12.00;9.75;;;29.43;97761.09;;;;118978;1188;24837;-68
2022/07/23 02:46:53;;;;;;;;;7.50;7.50;;;29.43;97764.79;;;;118958;1190;25738;-68
2022/07/23 02:49:21;;;;;;;;;10.75;9.25;;;29.45;97768.50;;;;118962;1189;25076;-68
2022/07/23 02:51:49;;;;;;;;;11.50;10.00;;;29.46;97770.23;;;;118973;1190;25764;-68
2022/07/23 02:54:17;;;;;;;;;11.00;9.25;;;29.47;97766.39;;;;119017;1188;26004;-67
2022/07/23 02:56:45;;;;;;;;;8.75;8.00;;;29.47;97765.20;;;;119114;1188;25674;-67
2022/07/23 02:59:13;;;;;;;;;11.25;8.25;;;29.47;97772.46;;;;119101;1187;26247;-66
2022/07/23 03:01:41;;;;;;;;;11.00;10.50;;;29.47;97774.39;;;;119000;1189;25298;-68
2022/07/23 03:04:09;;;;;;;;;14.00;11.25;;;29.47;97776.46;;;;119003;1189;25001;-67
2022/07/23 03:06:38;;;;;;;;;12.25;11.50;;;29.48;97781.98;;;;119016;1189;26262;-67
2022/07/23 03:09:06;;;;;;;;;10.75;8.25;;;29.50;97778.78;;;;119162;1189;24764;-68
2022/07/23 03:11:33;;;;;;;;;13.33;9.67;;;29.50;97780.63;;;;119141;1188;25204;-68
2022/07/23 03:14:01;;;;;;;;;12.75;10.50;;;29.51;97779.80;;;;119110;1187;25614;-67
2022/07/23 03:16:29;;;;;;;;;9.25;9.25;;;29.52;97782.42;;;;118976;1189;26602;-68
2022/07/23 03:18:57;;;;;;;;;9.25;9.25;;;29.53;97784.17;;;;118988;1189;25119;-68
2022/07/23 03:21:25;;;;;;;;;9.75;9.75;;;29.52;97783.40;;;;119024;1189;25111;-68
2022/07/23 03:23:53;;;;;;;;;10.25;9.50;;;29.53;97781.70;;;;118999;1189;25822;-69
2022/07/23 03:26:25;;;;;;;;;12.25;10.00;;;29.52;97783.98;;;;118995;1188;24783;-68
2022/07/23 03:28:53;;;;;;;;;13.25;10.00;;;29.54;97783.90;;;;118886;1190;25684;-68
2022/07/23 03:31:20;;;;;;;;;10.00;8.25;;;29.53;97783.17;;;;119018;1189;25484;-68
2022/07/23 03:33:48;;;;;;;;;8.75;8.25;;;29.53;97781.98;;;;119107;1188;24769;-68
2022/07/23 03:36:16;;;;;;;;;12.00;9.00;;;29.53;97786.00;;;;119156;1187;26233;-68
2022/07/23 03:38:47;;;;;;;;;11.25;9.75;;;29.55;97785.25;;;;119130;1188;25420;-68
2022/07/23 03:41:15;;;;;;;;;13.50;11.25;;;29.55;97787.98;;;;119141;1188;25231;-68
2022/07/23 03:43:42;;;;;;;;;10.50;9.75;;;29.54;97790.75;;;;119132;1189;25381;-68
2022/07/23 03:46:10;;;;;;;;;7.00;6.75;;;29.56;97792.95;;;;119144;1188;25619;-68
2022/07/23 03:48:38;;;;;;;;;18.25;10.25;;;29.56;97793.04;;;;119111;1188;25144;-68
2022/07/23 03:51:07;;;;;;;;;13.25;11.00;;;29.56;97795.43;;;;119141;1188;24892;-68
2022/07/23 03:53:35;;;;;;;;;9.25;9.25;;;29.56;97795.04;;;;119057;1188;25421;-67
2022/07/23 03:56:03;;;;;;;;;10.50;9.25;;;29.58;97797.71;;;;118984;1189;26110;-67
2022/07/23 03:58:31;;;;;;;;;12.25;8.25;;;29.57;97800.26;;;;119111;1187;25943;-67
2022/07/23 04:00:59;;;;;;;;;13.50;11.50;;;29.58;97803.15;;;;119129;1188;26306;-68
2022/07/23 04:03:27;;;;;;;;;10.50;9.00;;;29.58;97799.56;;;;119127;1188;25691;-67
2022/07/23 04:05:55;;;;;;;;;12.00;8.50;;;29.60;97797.39;;;;119147;1188;25671;-68
2022/07/23 04:08:23;;;;;;;;;9.25;8.25;;;29.62;97799.98;;;;119133;1188;25320;-67
2022/07/23 04:10:51;;;;;;;;;11.50;10.00;;;29.64;97801.59;;;;118990;1189;24919;-67
2022/07/23 04:13:19;;;;;;;;;10.25;8.00;;;29.67;97803.05;;;;118970;1190;25519;-67
2022/07/23 04:15:47;;;;;;;;;10.75;10.50;;;29.66;97798.73;;;;119024;1188;25377;-67
2022/07/23 04:18:17;;;;;;;;;9.75;8.50;;;29.68;97797.45;;;;118956;1189;26136;-68
2022/07/23 04:20:44;;;;;;;;;10.75;10.25;;;29.67;97794.42;;;;118972;1189;25250;-68
2022/07/23 04:23:12;;;;;;;;;8.50;8.50;;;29.66;97792.29;;;;118954;1189;25357;-65
2022/07/23 04:25:40;;;;;;;;;13.00;12.50;;;29.44;97792.55;;;;118971;1188;25065;-64
2022/07/23 04:28:08;;;;;;;;;11.75;10.50;;;29.34;97795.51;;;;119056;1188;24927;-70
2022/07/23 04:30:36;;;;;;;;;15.50;11.50;;;29.05;97794.73;;;;119096;1186;25400;-63
2022/07/23 04:33:07;;;;;;;;;16.25;13.75;;;28.96;97794.81;;;;119023;1189;25355;-63
2022/07/23 04:35:35;;;;;;;;;15.50;13.25;;;28.77;97793.04;;;;119112;1188;25135;-64
2022/07/23 04:38:03;;;;;;;;;16.25;10.50;;;28.75;97790.52;;;;119126;1187;24731;-67
2022/07/23 04:40:33;;;;;;;;;15.75;12.50;;;28.81;97791.53;;;;119039;1188;25264;-68
2022/07/23 04:43:00;;;;;;;;;13.00;12.00;;;28.93;97789.11;;;;119092;1189;25845;-67
2022/07/23 04:45:28;;;;;;;;;17.00;12.25;;;28.99;97789.75;;;;119100;1188;24777;-67
2022/07/23 04:47:57;;;;;;;;;12.75;10.50;;;29.05;97795.54;;;;119111;1187;26010;-67
2022/07/23 04:50:24;;;;;;;;;15.50;11.50;;;29.11;97799.40;;;;119060;1188;25466;-68
2022/07/23 04:52:53;;;;;;;;;15.75;13.25;;;29.19;97804.58;;;;119026;1187;25416;-67
2022/07/23 04:55:21;;;;;;;;;12.25;9.75;;;29.25;97805.33;;;;118976;1190;24787;-67
2022/07/23 04:57:48;;;;;;;;;13.75;11.00;;;29.27;97801.39;;;;119005;1189;24876;-65
2022/07/23 05:00:16;;;;;;;;;8.75;8.50;;;29.33;97799.87;;;;118969;1190;25181;-68
2022/07/23 05:02:44;;;;;;;;;10.00;10.00;;;29.37;97799.32;;;;119101;1188;25404;-67
2022/07/23 05:05:12;;;;;;;;;11.25;8.50;;;29.41;97794.16;;;;119111;1187;25031;-67
2022/07/23 05:07:40;;;;;;;;;13.25;10.75;;;29.43;97796.27;;;;118969;1189;26035;-67
2022/07/23 05:10:08;;;;;;;;;11.75;11.75;;;29.46;97796.64;;;;119039;1188;25632;-66
2022/07/23 05:12:36;;;;;;;;;13.25;11.75;;;29.47;97794.38;;;;118982;1189;25601;-67
2022/07/23 05:15:05;;;;;;;;;16.25;11.00;;;29.48;97797.17;;;;119109;1187;25312;-67
2022/07/23 05:17:33;;;;;;;;;15.75;11.25;;;29.50;97796.95;;;;119101;1189;25637;-68
2022/07/23 05:20:01;;;;;;;;;11.67;10.33;;;29.52;97795.50;;;;119013;1188;25271;-68
2022/07/23 05:22:29;;;;;;;;;13.25;12.00;;;29.55;97797.02;;;;119027;1188;25463;-67
2022/07/23 05:24:56;;;;;;;;;11.50;10.50;;;29.57;97798.13;;;;119016;1188;25025;-67
2022/07/23 05:27:25;;;;;;;;;12.50;11.00;;;29.61;97801.66;;;;118973;1188;25046;-67
2022/07/23 05:29:53;;;;;;;;;16.25;12.50;;;29.65;97799.89;;;;118998;1189;25806;-67
2022/07/23 05:32:20;;;;;;;;;16.00;14.00;;;29.66;97796.50;;;;118997;1189;25116;-67
2022/07/23 05:34:48;;;;;;;;;11.00;10.25;;;29.67;97797.50;;;;118980;1189;25410;-68
2022/07/23 05:37:17;;;;;;;;;19.25;12.00;;;29.72;97795.92;;;;118958;1189;25261;-66
2022/07/23 05:39:44;;;;;;;;;9.50;7.25;;;29.76;97795.69;;;;119008;1189;25007;-67
2022/07/23 05:42:12;;;;;;;;;16.50;12.25;;;29.79;97795.17;;;;119019;1189;26015;-67
2022/07/23 05:44:40;;;;;;;;;13.25;10.25;;;29.78;97795.35;;;;118986;1189;26136;-68
2022/07/23 05:47:08;;;;;;;;;14.75;11.75;;;29.85;97795.51;;;;119011;1189;25262;-67
2022/07/23 05:49:38;;;;;;;;;17.75;16.50;;;29.82;97794.93;;;;119004;1189;25229;-68
2022/07/23 05:52:06;;;;;;;;;13.33;11.33;;;29.84;97790.73;;;;119153;1188;26354;-68
2022/07/23 05:54:35;;;;;;;;;17.00;14.67;;;29.95;97792.18;;;;119146;1187;26399;-68
2022/07/23 05:57:03;;;;;;;;;19.50;14.75;;;30.08;97791.36;;;;119079;1188;25079;-68
2022/07/23 05:59:31;;;;;;;;;13.25;12.25;;;30.03;97794.42;;;;119075;1188;25586;-68
2022/07/23 06:01:59;;;;;;;;;19.75;16.50;;;29.97;97795.79;;;;119066;1187;25759;-68
2022/07/23 06:04:27;;;;;;;;;18.50;14.75;;;29.92;97794.73;;;;119061;1187;25345;-67
2022/07/23 06:06:55;;;;;;;;;12.50;11.75;;;29.89;97795.85;;;;119068;1187;25196;-67
2022/07/23 06:09:23;;;;;;;;;18.50;15.75;;;29.86;97797.39;;;;119133;1188;25710;-66
2022/07/23 06:11:50;;;;;;;;;14.75;11.00;;;29.92;97798.41;;;;119228;1189;25305;-68
2022/07/23 06:14:18;;;;;;;;;13.00;9.75;;;30.12;97797.57;;;;119193;1189;25358;-66
2022/07/23 06:16:46;;;;;;;;;19.33;13.00;;;30.25;97790.98;;;;119225;1188;26302;-67
2022/07/23 06:19:14;;;;;;;;;13.75;12.00;;;30.41;97789.48;;;;119192;1188;25113;-67
2022/07/23 06:21:42;;;;;;;;;13.00;11.00;;;30.49;97786.81;;;;119183;1186;25619;-68
2022/07/23 06:24:14;;;;;;;;;17.67;15.00;;;30.55;97782.77;;;;119223;1188;25181;-68
2022/07/23 06:26:42;;;;;;;;;13.25;10.00;;;30.59;97779.95;;;;119109;1187;24828;-68
2022/07/23 06:29:10;;;;;;;;;13.50;11.25;;;30.39;97779.24;;;;119093;1188;26236;-68
2022/07/23 06:31:38;;;;;;;;;14.00;9.75;;;30.25;97776.42;;;;119067;1189;24972;-68
2022/07/23 06:34:06;;;;;;;;;15.00;10.67;;;30.18;97774.82;;;;118974;1190;25705;-67
2022/07/23 06:36:34;;;;;;;;;15.25;10.25;;;30.11;97772.30;;;;119089;1188;25391;-68
2022/07/23 06:39:02;;;;;;;;;14.75;12.25;;;30.05;97773.13;;;;119075;1188;25283;-68
2022/07/23 06:41:32;;;;;;;;;16.50;13.75;;;30.02;97771.88;;;;119124;1188;24948;-68
2022/07/23 06:44:00;;;;;;;;;16.00;12.00;;;29.99;97775.52;;;;119194;1188;25076;-68
2022/07/23 06:46:27;;;;;;;;;13.75;10.75;;;29.97;97772.59;;;;119014;1189;25080;-68
2022/07/23 06:48:55;;;;;;;;;12.75;6.00;;;29.95;97766.94;;;;119182;1188;26572;-68
2022/07/23 06:51:23;;;;;;;;;13.25;10.50;;;29.94;97763.54;;;;119206;1187;25424;-68
2022/07/23 06:53:51;;;;;;;;;12.50;12.25;;;29.93;97762.83;;;;119239;1187;25468;-68
2022/07/23 06:56:19;;;;;;;;;12.00;11.00;;;29.93;97765.94;;;;119264;1187;25172;-67
2022/07/23 06:58:47;;;;;;;;;11.75;10.75;;;29.91;97766.66;;;;119244;1187;24856;-67
2022/07/23 07:01:15;;;;;;;;;12.00;9.00;;;29.90;97764.63;;;;118987;1188;25934;-67
2022/07/23 07:03:43;;;;;;;;;13.50;12.25;;;29.91;97766.57;;;;119014;1190;25077;-67
2022/07/23 07:06:11;;;;;;;;;15.25;9.75;;;29.90;97767.87;;;;118986;1190;24856;-67
2022/07/23 07:08:38;;;;;;;;;8.25;8.25;;;29.90;97769.14;;;;119225;1186;26147;-68
2022/07/23 07:11:08;;;;;;;;;13.75;9.50;;;29.89;97768.95;;;;119214;1187;25777;-66
2022/07/23 07:13:37;;;;;;;;;15.50;11.00;;;29.89;97770.41;;;;119211;1187;25548;-67
2022/07/23 07:16:05;;;;;;;;;13.50;10.50;;;29.90;97770.65;;;;119202;1188;25373;-66
2022/07/23 07:18:33;;;;;;;;;12.25;9.75;;;29.91;97771.94;;;;119235;1187;25609;-67
2022/07/23 07:21:01;;;;;;;;;16.25;9.75;;;29.90;97771.76;;;;119221;1187;25191;-68
2022/07/23 07:23:29;;;;;;;;;12.50;12.00;;;29.90;97771.24;;;;119239;1188;25480;-67
2022/07/23 07:25:56;;;;;;;;;15.50;10.25;;;29.89;97767.88;;;;119028;1188;25884;-67
2022/07/23 07:28:24;;;;;;;;;10.25;8.75;;;29.89;97766.67;;;;119212;1188;25144;-67
2022/07/23 07:30:52;;;;;;;;;12.75;9.50;;;29.89;97770.48;;;;119002;1189;25681;-67
2022/07/23 07:33:21;;;;;;;;;16.25;12.50;;;29.89;97766.45;;;;119227;1188;26167;-66
2022/07/23 07:35:49;;;;;;;;;11.75;10.00;;;29.89;97765.09;;;;119216;1187;25094;-67
2022/07/23 07:38:16;;;;;;;;;12.50;9.25;;;29.89;97766.08;;;;119197;1187;25904;-67
2022/07/23 07:40:44;;;;;;;;;15.25;13.00;;;29.89;97766.14;;;;119204;1187;25628;-67
2022/07/23 07:43:12;;;;;;;;;11.75;9.25;;;29.89;97762.35;;;;119182;1188;25174;-67
2022/07/23 07:45:40;;;;;;;;;15.25;12.25;;;29.88;97763.86;;;;119201;1188;25310;-67
2022/07/23 07:48:08;;;;;;;;;14.75;12.00;;;29.88;97761.65;;;;118910;1190;25393;-67
2022/07/23 07:50:35;;;;;;;;;12.00;10.00;;;29.89;97755.54;;;;119001;1190;25554;-67
2022/07/23 07:53:04;;;;;;;;;15.75;10.00;;;29.89;97756.86;;;;119005;1189;24915;-66
2022/07/23 07:55:33;;;;;;;;;10.00;9.50;;;29.89;97757.95;;;;118984;1189;25608;-67
2022/07/23 07:58:01;;;;;;;;;12.00;10.50;;;29.89;97761.12;;;;118991;1190;26311;-67
2022/07/23 08:00:29;;;;;;;;;13.75;12.50;;;29.89;97758.77;;;;118988;1190;24997;-66
2022/07/23 08:02:59;;;;;;;;;19.25;10.75;;;29.90;97761.46;;;;118983;1190;25616;-66
2022/07/23 08:05:30;;;;;;;;;12.50;9.50;;;29.91;97765.91;;;;119004;1189;24963;-66
2022/07/23 08:07:59;;;;;;;;;13.00;10.00;;;29.92;97761.17;;;;119018;1189;24906;-66
2022/07/23 08:10:28;;;;;;;;;10.00;7.75;;;29.91;97763.52;;;;119039;1190;25619;-67
2022/07/23 08:12:56;;;;;;;;;19.00;9.75;;;29.92;97761.48;;;;119006;1189;24887;-67
2022/07/23 08:15:26;;;;;;;;;11.25;8.25;;;29.93;97762.55;;;;119017;1190;26105;-67
2022/07/23 08:17:55;;;;;;;;;10.25;9.75;;;29.93;97759.77;;;;119010;1190;25392;-67
2022/07/23 08:20:24;;;;;;;;;15.00;11.75;;;29.93;97757.77;;;;118963;1191;25160;-67
2022/07/23 08:22:55;;;;;;;;;11.50;10.00;;;29.93;97758.20;;;;118929;1189;24792;-67
2022/07/23 08:25:26;;;;;;;;;10.75;9.00;;;29.93;97758.33;;;;118940;1191;25234;-67
2022/07/23 08:27:54;;;;;;;;;16.25;11.25;;;29.94;97757.05;;;;118928;1190;25594;-67
2022/07/23 08:30:23;;;;;;;;;11.75;10.00;;;29.94;97755.47;;;;118926;1191;25097;-67
2022/07/23 08:33:00;;;;;;;;;13.75;10.25;;;29.94;97754.39;;;;118939;1191;24820;-67
2022/07/23 08:35:32;;;;;;;;;15.00;12.00;;;29.96;97754.10;;;;118947;1191;24967;-68
2022/07/23 08:38:03;;;;;;;;;14.75;7.00;;;29.95;97753.61;;;;118945;1190;25388;-68
2022/07/23 08:40:34;;;;;;;;;12.50;11.00;;;29.95;97749.14;;;;118940;1191;25179;-68
2022/07/23 08:43:12;;;;;;;;;11.75;10.25;;;29.98;97746.25;;;;118924;1191;25554;-67
2022/07/23 08:45:42;;;;;;;;;11.00;9.25;;;29.99;97741.11;;;;118936;1191;24937;-67
2022/07/23 08:48:22;;;;;;;;;13.75;12.25;;;29.98;97739.94;;;;118916;1191;25094;-67
2022/07/23 08:50:53;;;;;;;;;15.75;12.50;;;29.98;97736.15;;;;118938;1191;25035;-67
2022/07/23 08:53:23;;;;;;;;;14.00;10.75;;;29.98;97735.20;;;;118939;1191;25402;-67
2022/07/23 08:55:53;;;;;;;;;11.75;8.00;;;29.97;97727.73;;;;118961;1191;24867;-67
2022/07/23 08:58:22;;;;;;;;;11.75;11.50;;;29.97;97727.18;;;;118914;1191;24761;-67
2022/07/23 09:00:58;;;;;;;;;14.50;10.00;;;29.97;97721.21;;;;118993;1190;24830;-67
2022/07/23 09:03:31;;;;;;;;;16.67;12.00;;;29.98;97722.70;;;;118991;1189;25101;-67
2022/07/23 09:06:01;;;;;;;;;15.00;13.50;;;29.98;97722.71;;;;118975;1189;25808;-67
2022/07/23 09:08:39;;;;;;;;;12.25;10.75;;;29.97;97720.85;;;;118987;1189;25456;-67
2022/07/23 09:11:08;;;;;;;;;14.75;11.00;;;29.98;97719.19;;;;118978;1189;25134;-67
2022/07/23 09:13:42;;;;;;;;;13.00;11.75;;;29.97;97714.09;;;;119005;1189;25580;-67
2022/07/23 09:16:31;;;;;;;;;10.50;10.50;;;29.97;97713.91;;;;118991;1189;25734;-67
2022/07/23 09:19:02;;;;;;;;;8.50;7.25;;;30.06;97711.70;;;;119068;1187;25607;-67
2022/07/23 09:21:31;;;;;;;;;16.50;11.00;;;30.06;97711.55;;;;119154;1188;25403;-67
2022/07/23 09:24:03;;;;;;;;;14.25;12.00;;;30.02;97708.03;;;;118970;1190;25220;-67
2022/07/23 09:26:41;;;;;;;;;16.75;12.75;;;30.02;97707.74;;;;119154;1188;26078;-67
2022/07/23 09:29:13;;;;;;;;;16.50;12.00;;;30.00;97705.73;;;;119132;1189;25653;-67
2022/07/23 09:31:49;;;;;;;;;14.00;11.75;;;29.99;97707.23;;;;118940;1190;24917;-68
2022/07/23 09:34:38;;;;;;;;;12.75;11.75;;;29.99;97707.30;;;;119212;1187;24985;-67
2022/07/23 09:37:14;;;;;;;;;16.00;11.25;;;30.01;97705.66;;;;118983;1188;24821;-67
2022/07/23 09:39:44;;;;;;;;;14.00;10.50;;;30.01;97705.95;;;;119139;1187;25453;-67
2022/07/23 09:42:20;;;;;;;;;16.00;11.00;;;29.99;97706.30;;;;119113;1188;25447;-68
2022/07/23 09:44:53;;;;;;;;;11.50;10.25;;;29.98;97705.47;;;;119101;1188;25576;-68
2022/07/23 09:47:23;;;;;;;;;12.75;10.00;;;29.99;97704.59;;;;119107;1188;25020;-67
2022/07/23 09:50:00;;;;;;;;;16.50;12.25;;;30.00;97702.58;;;;119133;1188;24835;-66
2022/07/23 09:52:31;;;;;;;;;11.25;10.25;;;29.99;97701.89;;;;119116;1188;25000;-67
2022/07/23 09:55:05;;;;;;;;;14.00;9.67;;;30.00;97700.27;;;;119010;1189;25402;-67
2022/07/23 09:57:33;;;;;;;;;10.33;9.33;;;30.01;97697.84;;;;119002;1190;25141;-68
2022/07/23 10:00:06;;;;;;;;;17.00;11.00;;;30.01;97696.09;;;;118990;1190;25507;-67
2022/07/23 10:02:34;;;;;;;;;10.25;8.25;;;30.01;97688.09;;;;118961;1190;24744;-67
2022/07/23 10:05:04;;;;;;;;;11.50;9.25;;;30.03;97687.54;;;;118989;1190;25254;-66
2022/07/23 10:07:34;;;;;;;;;12.50;8.25;;;30.04;97684.48;;;;118993;1189;25226;-67
2022/07/23 10:10:03;;;;;;;;;15.50;10.50;;;30.05;97679.98;;;;118994;1189;25388;-67
2022/07/23 10:15:09;;;;;;;;;13.75;9.50;;;30.06;97673.41;;;;119005;1190;25703;-67
2022/07/23 10:17:37;;;;;;;;;14.25;9.75;;;30.04;97668.43;;;;118980;1190;24833;-67
2022/07/23 10:20:05;;;;;;;;;10.00;8.00;;;30.03;97663.23;;;;119000;1189;25731;-67
2022/07/23 10:22:37;;;;;;;;;12.00;10.75;;;30.03;97662.86;;;;119021;1189;25581;-69
2022/07/23 10:25:20;;;;;;;;;11.67;10.67;;;30.03;97660.33;;;;118971;1188;26289;-66
2022/07/23 10:27:54;;;;;;;;;10.75;8.75;;;30.05;97659.19;;;;118984;1190;25475;-66
2022/07/23 10:30:37;;;;;;;;;10.75;9.25;;;30.05;97657.55;;;;118961;1189;26381;-67
2022/07/23 10:33:20;;;;;;;;;11.75;9.75;;;30.06;97653.69;;;;119000;1189;25288;-66
2022/07/23 10:36:09;;;;;;;;;10.50;10.00;;;30.07;97651.94;;;;118986;1188;25279;-67
2022/07/23 10:38:52;;;;;;;;;11.50;11.50;;;30.06;97652.15;;;;118978;1189;26526;-67
2022/07/23 10:41:40;;;;;;;;;11.50;11.00;;;30.06;97649.63;;;;119002;1190;25307;-67
2022/07/23 10:44:17;;;;;;;;;18.33;10.67;;;30.08;97645.67;;;;118999;1189;25193;-67
2022/07/23 10:49:50;;;;;;;;;12.75;10.00;;;30.11;97639.01;;;;118987;1189;25695;-67
2022/07/23 10:52:22;;;;;;;;;10.25;10.25;;;30.07;97633.55;;;;119002;1189;26030;-67
2022/07/23 10:54:50;;;;;;;;;12.50;11.50;;;30.07;97632.83;;;;118995;1190;25666;-68
2022/07/23 10:57:29;;;;;;;;;10.75;9.75;;;30.07;97629.17;;;;119016;1189;24817;-68
2022/07/23 11:02:32;;;;;;;;;18.25;12.00;;;30.12;97628.70;;;;119101;1188;25596;-68
2022/07/23 11:05:01;;;;;;;;;14.50;11.25;;;30.10;97625.30;;;;119109;1188;24832;-68
2022/07/23 11:07:30;;;;;;;;;12.75;12.00;;;30.10;97624.93;;;;119101;1188;25496;-68
2022/07/23 11:09:58;;;;;;;;;15.00;12.50;;;30.09;97625.63;;;;119098;1188;24929;-67
2022/07/23 11:12:29;;;;;;;;;9.00;9.00;;;30.09;97625.22;;;;119124;1188;25233;-67
2022/07/23 11:15:11;;;;;;;;;13.67;13.00;;;30.10;97622.89;;;;119141;1187;26011;-66
2022/07/23 11:17:50;;;;;;;;;13.25;10.25;;;30.11;97615.98;;;;119123;1187;25677;-67
2022/07/23 11:20:21;;;;;;;;;14.00;11.25;;;30.11;97610.69;;;;119125;1187;25952;-67
2022/07/23 11:22:50;;;;;;;;;12.00;11.00;;;30.12;97610.08;;;;119129;1188;26109;-67
2022/07/23 11:25:21;;;;;;;;;14.25;11.00;;;30.12;97604.57;;;;119135;1187;25016;-67
2022/07/23 11:27:51;;;;;;;;;14.00;11.75;;;30.12;97600.79;;;;119147;1187;24768;-67
2022/07/23 11:30:28;;;;;;;;;12.25;11.25;;;30.12;97601.89;;;;119240;1187;25731;-67
2022/07/23 11:33:08;;;;;;;;;18.50;13.75;;;30.12;97595.52;;;;119240;1188;25052;-66
2022/07/23 11:35:38;;;;;;;;;11.75;11.00;;;30.11;97590.59;;;;119220;1188;25638;-67
2022/07/23 11:38:19;;;;;;;;;15.00;13.00;;;30.14;97590.77;;;;119176;1187;24784;-67
2022/07/23 11:40:49;;;;;;;;;12.00;10.75;;;30.17;97590.40;;;;119180;1186;26438;-67
2022/07/23 11:43:18;;;;;;;;;11.00;9.67;;;30.18;97590.32;;;;119214;1188;26036;-67
2022/07/23 11:45:50;;;;;;;;;14.67;12.00;;;30.17;97590.42;;;;119215;1187;25915;-68
2022/07/23 11:48:26;;;;;;;;;15.00;12.00;;;30.18;97594.30;;;;119225;1187;25318;-68
2022/07/23 11:50:56;;;;;;;;;14.00;10.00;;;30.20;97590.73;;;;119139;1188;24711;-68
2022/07/23 11:53:29;;;;;;;;;10.25;9.00;;;30.20;97592.63;;;;119011;1188;25122;-69
2022/07/23 11:56:05;;;;;;;;;14.75;11.00;;;30.21;97589.29;;;;118969;1189;25051;-68
2022/07/23 11:58:33;;;;;;;;;17.00;13.00;;;30.22;97588.43;;;;118979;1190;25241;-68
2022/07/23 12:01:01;;;;;;;;;13.25;12.00;;;30.21;97586.98;;;;118985;1190;24991;-67
2022/07/23 12:03:30;;;;;;;;;12.75;9.75;;;30.19;97580.77;;;;118992;1189;25445;-68
2022/07/23 12:06:00;;;;;;;;;13.50;13.25;;;30.20;97577.23;;;;118986;1190;25140;-68
2022/07/23 12:08:28;;;;;;;;;13.25;12.00;;;30.20;97571.83;;;;118981;1189;24956;-68
2022/07/23 12:10:57;;;;;;;;;9.50;9.50;;;30.21;97566.34;;;;118954;1190;25373;-68
2022/07/23 12:13:24;;;;;;;;;13.00;13.00;;;30.21;97569.04;;;;118998;1189;25193;-68
2022/07/23 12:15:53;;;;;;;;;9.25;7.50;;;30.20;97565.15;;;;119003;1189;25374;-66